Somerville, Massachusetts
Current Conditions -  °F | °C
As of 6:54 AM on Thursday 27 Nov 2014 (Local Time) from KBOS Reporting Station
Broken Clouds Broken Clouds  
Wind Chill: 27°   Ceiling: 8000
Heat Index: 35°   Visibility: 10mi
Dew Point: 31°   Wind: 10mph
Humidity: 85%   Direction: 320°NW
Pressure: 29.85"   Gusts: NA
Location:  42.39°N, 71.1°W
Report Text: KBOS 271154Z 32009KT 10SM FEW015 BKN080 02/M01 A2985 RMK AO2 SLP106 60002 70146 T00171006 10017 20006 51024 $
Loading
Personal Weather Stations






























Interactive Weather Map New forecast layout! Learn more

10-Day Weather Forecast

Advertisements
Track Severe Weather on mobile